^^
Station Historical Data
Daily Summary for January 27, 2017 Units:  English    Metric   Both
« Previous Day
Next Day »
Daily Weekly Monthly Yearly Custom
  High: Low: Average:
Temperature: 40.3 °F 31.2 °F 36.8 °F
Dew Point: 30.5 °F 21.3 °F 26.2 °F
Humidity: 72 % 56 % 65 %
Wind Speed: 16.2 mph 2.0 mph 8.5 mph
Wind Gust: 25.3 mph - -
Wind:- - WSW
Pressure: 29.75 in 29.65 in -
Precipitation: 0.00 in    
Historical Graphs
 
 
Tabular Data for January 27, 2017
Time Temperature Dew Point Pressure Wind Wind Speed Wind Gust Humidity Rainfall Rate (Hourly) solar Conditions
00:03 39.8 °F 30.5 °F 29.67 in West 8.9 mph 12.0 mph 69 % 0.00 in 0.0 W/m2 RA
00:08 39.9 °F 30.5 °F 29.67 in WSW 6.1 mph 15.0 mph 69 % 0.00 in 0.0 W/m2 RA
00:13 39.9 °F 30.2 °F 29.67 in West 9.8 mph 13.8 mph 68 % 0.00 in 0.0 W/m2 CLR
00:18 39.9 °F 30.2 °F 29.67 in WSW 10.9 mph 14.0 mph 68 % 0.00 in 0.0 W/m2 CLR
00:23 39.8 °F 30.1 °F 29.67 in SW 9.4 mph 11.5 mph 68 % 0.00 in 0.0 W/m2 CLR
00:28 39.7 °F 30.0 °F 29.67 in West 6.4 mph 12.0 mph 68 % 0.00 in 0.0 W/m2 CLR
00:33 39.7 °F 30.0 °F 29.67 in WNW 7.9 mph 14.0 mph 68 % 0.00 in 0.0 W/m2 CLR
00:38 39.7 °F 30.0 °F 29.67 in WSW 6.3 mph 8.1 mph 68 % 0.00 in 0.0 W/m2 CLR
00:43 39.6 °F 29.9 °F 29.67 in WSW 7.1 mph 11.5 mph 68 % 0.00 in 0.0 W/m2 CLR
00:53 39.6 °F 29.9 °F 29.67 in West 10.7 mph 13.8 mph 68 % 0.00 in 0.0 W/m2 CLR
00:58 39.7 °F 30.4 °F 29.67 in WSW 12.8 mph 17.0 mph 69 % 0.00 in 0.0 W/m2 CLR
01:03 39.8 °F 30.5 °F 29.67 in WNW 8.1 mph 11.5 mph 69 % 0.00 in 0.0 W/m2 CLR
01:08 39.8 °F 30.1 °F 29.67 in WSW 6.8 mph 14.0 mph 68 % 0.00 in 0.0 W/m2 CLR
01:13 39.7 °F 30.0 °F 29.67 in SW 7.4 mph 11.5 mph 68 % 0.00 in 0.0 W/m2 CLR
01:18 39.7 °F 30.0 °F 29.67 in West 7.5 mph 12.7 mph 68 % 0.00 in 0.0 W/m2 CLR
01:23 39.7 °F 30.0 °F 29.68 in SW 7.2 mph 11.5 mph 68 % 0.00 in 0.0 W/m2 CLR
01:28 39.5 °F 29.8 °F 29.68 in WSW 8.9 mph 16.1 mph 68 % 0.00 in 0.0 W/m2 CLR
01:33 39.4 °F 29.7 °F 29.68 in West 9.7 mph 14.0 mph 68 % 0.00 in 0.0 W/m2 CLR
01:38 39.5 °F 29.8 °F 29.68 in WSW 9.8 mph 16.1 mph 68 % 0.00 in 0.0 W/m2 CLR
01:43 39.6 °F 29.5 °F 29.68 in West 14.3 mph 25.3 mph 67 % 0.00 in 0.0 W/m2 CLR
01:48 39.8 °F 29.4 °F 29.68 in West 9.7 mph 15.0 mph 66 % 0.00 in 0.0 W/m2 CLR
01:53 39.9 °F 29.5 °F 29.68 in WSW 11.8 mph 16.1 mph 66 % 0.00 in 0.0 W/m2 CLR
01:58 40.0 °F 29.2 °F 29.68 in West 10.2 mph 16.0 mph 65 % 0.00 in 0.0 W/m2 CLR
02:03 40.2 °F 29.0 °F 29.68 in WNW 8.6 mph 14.0 mph 64 % 0.00 in 0.0 W/m2 CLR
02:08 40.3 °F 29.1 °F 29.69 in West 9.6 mph 15.0 mph 64 % 0.00 in 0.0 W/m2 CLR
02:13 40.3 °F 29.5 °F 29.69 in SW 8.6 mph 12.7 mph 65 % 0.00 in 0.0 W/m2 CLR
02:18 40.1 °F 30.0 °F 29.69 in West 6.9 mph 13.8 mph 67 % 0.00 in 0.0 W/m2 CLR
02:23 39.8 °F 30.1 °F 29.69 in West 5.3 mph 10.4 mph 68 % 0.00 in 0.0 W/m2 CLR
02:28 39.4 °F 30.1 °F 29.69 in West 3.5 mph 9.2 mph 69 % 0.00 in 0.0 W/m2 CLR
02:33 39.0 °F 30.0 °F 29.70 in WSW 9.2 mph 15.0 mph 70 % 0.00 in 0.0 W/m2 CLR
02:38 38.6 °F 29.7 °F 29.70 in West 9.8 mph 19.6 mph 70 % 0.00 in 0.0 W/m2 CLR
02:44 38.3 °F 29.7 °F 29.70 in WSW 9.1 mph 13.0 mph 71 % 0.00 in 0.0 W/m2 CLR
02:49 38.2 °F 29.6 °F 29.70 in West 6.9 mph 12.7 mph 71 % 0.00 in 0.0 W/m2 CLR
02:54 38.1 °F 29.5 °F 29.70 in West 9.1 mph 11.5 mph 71 % 0.00 in 0.0 W/m2 CLR
02:59 38.0 °F 29.4 °F 29.70 in WSW 9.5 mph 11.5 mph 71 % 0.00 in 0.0 W/m2 CLR
03:04 38.0 °F 29.8 °F 29.70 in WSW 7.4 mph 12.7 mph 72 % 0.00 in 0.0 W/m2 CLR
03:09 37.9 °F 29.7 °F 29.70 in WSW 8.9 mph 12.7 mph 72 % 0.00 in 0.0 W/m2 CLR
03:14 37.8 °F 29.6 °F 29.70 in West 3.9 mph 9.2 mph 72 % 0.00 in 0.0 W/m2 CLR
03:19 37.6 °F 29.4 °F 29.70 in WSW 8.5 mph 12.7 mph 72 % 0.00 in 0.0 W/m2 CLR
03:24 37.4 °F 29.2 °F 29.70 in West 7.2 mph 12.7 mph 72 % 0.00 in 0.0 W/m2 CLR
03:29 37.2 °F 29.0 °F 29.70 in WSW 7.9 mph 12.7 mph 72 % 0.00 in 0.0 W/m2 CLR
03:34 37.1 °F 28.9 °F 29.70 in West 5.5 mph 8.1 mph 72 % 0.00 in 0.0 W/m2 CLR
03:39 37.0 °F 28.8 °F 29.69 in West 3.8 mph 8.1 mph 72 % 0.00 in 0.0 W/m2 CLR
03:44 37.0 °F 28.8 °F 29.69 in WSW 6.8 mph 12.7 mph 72 % 0.00 in 0.0 W/m2 CLR
03:49 37.1 °F 28.6 °F 29.69 in West 6.5 mph 9.2 mph 71 % 0.00 in 0.0 W/m2 CLR
03:54 37.3 °F 28.4 °F 29.69 in West 8.3 mph 11.5 mph 70 % 0.00 in 0.0 W/m2 CLR
03:59 37.5 °F 27.9 °F 29.69 in WSW 4.5 mph 10.4 mph 68 % 0.00 in 0.0 W/m2 CLR
04:04 37.7 °F 27.7 °F 29.69 in West 7.7 mph 17.3 mph 67 % 0.00 in 0.0 W/m2 CLR
04:09 38.0 °F 27.6 °F 29.69 in West 7.3 mph 15.0 mph 66 % 0.00 in 0.0 W/m2 CLR
04:14 38.1 °F 27.4 °F 29.69 in WSW 5.6 mph 10.4 mph 65 % 0.00 in 0.0 W/m2 CLR
04:19 38.3 °F 27.2 °F 29.69 in West 10.2 mph 16.0 mph 64 % 0.00 in 0.0 W/m2 CLR
04:24 38.4 °F 26.9 °F 29.69 in WSW 14.3 mph 19.6 mph 63 % 0.00 in 0.0 W/m2 CLR
04:29 38.5 °F 26.6 °F 29.70 in WSW 7.3 mph 14.0 mph 62 % 0.00 in 0.0 W/m2 CLR
04:34 38.5 °F 26.6 °F 29.69 in WSW 10.9 mph 19.6 mph 62 % 0.00 in 0.0 W/m2 CLR
04:39 38.6 °F 26.3 °F 29.70 in West 10.6 mph 16.1 mph 61 % 0.00 in 0.0 W/m2 CLR
04:44 38.6 °F 25.9 °F 29.70 in West 11.8 mph 17.3 mph 60 % 0.00 in 0.0 W/m2 CLR
04:49 38.6 °F 25.9 °F 29.69 in WSW 10.0 mph 19.6 mph 60 % 0.00 in 0.0 W/m2 CLR
04:54 38.6 °F 25.9 °F 29.69 in West 8.2 mph 18.4 mph 60 % 0.00 in 0.0 W/m2 CLR
04:59 38.5 °F 25.8 °F 29.70 in SW 9.6 mph 18.4 mph 60 % 0.00 in 0.0 W/m2 CLR
05:04 38.5 °F 25.8 °F 29.70 in WSW 10.1 mph 17.3 mph 60 % 0.00 in 0.0 W/m2 CLR
05:09 38.5 °F 25.8 °F 29.70 in WSW 10.3 mph 18.4 mph 60 % 0.00 in 0.0 W/m2 CLR
05:14 38.5 °F 25.4 °F 29.70 in WSW 8.9 mph 21.9 mph 59 % 0.00 in 0.0 W/m2 CLR
05:19 38.5 °F 25.4 °F 29.70 in SW 16.2 mph 22.0 mph 59 % 0.00 in 0.0 W/m2 CLR
05:24 38.5 °F 25.4 °F 29.70 in West 8.6 mph 16.1 mph 59 % 0.00 in 0.0 W/m2 CLR
05:30 38.5 °F 25.4 °F 29.70 in West 8.9 mph 15.0 mph 59 % 0.00 in 0.0 W/m2 CLR
05:35 38.4 °F 25.3 °F 29.70 in WSW 8.7 mph 10.0 mph 59 % 0.00 in 0.0 W/m2 CLR
05:40 38.3 °F 25.2 °F 29.70 in WNW 10.4 mph 17.3 mph 59 % 0.00 in 0.0 W/m2 CLR
05:45 38.3 °F 25.2 °F 29.70 in SW 8.4 mph 16.1 mph 59 % 0.00 in 0.0 W/m2 CLR
05:50 38.3 °F 25.2 °F 29.70 in SW 11.5 mph 16.1 mph 59 % 0.00 in 0.0 W/m2 CLR
05:55 38.3 °F 25.2 °F 29.70 in WSW 7.0 mph 17.0 mph 59 % 0.00 in 0.0 W/m2 CLR
06:00 38.2 °F 25.1 °F 29.71 in WSW 10.8 mph 11.0 mph 59 % 0.00 in 0.0 W/m2 CLR
06:05 38.2 °F 25.1 °F 29.71 in WSW 10.0 mph 17.0 mph 59 % 0.00 in 0.0 W/m2 CLR
06:10 38.2 °F 25.1 °F 29.71 in WSW 12.0 mph 16.0 mph 59 % 0.00 in 0.0 W/m2 CLR
06:15 38.1 °F 25.4 °F 29.71 in West 6.7 mph 16.1 mph 60 % 0.00 in 0.0 W/m2 CLR
06:20 38.0 °F 25.3 °F 29.71 in WSW 6.1 mph 10.0 mph 60 % 0.00 in 0.0 W/m2 CLR
06:25 37.9 °F 25.2 °F 29.70 in SW 12.3 mph 19.6 mph 60 % 0.00 in 0.0 W/m2 CLR
06:30 37.9 °F 25.6 °F 29.71 in WSW 10.9 mph 15.0 mph 61 % 0.00 in 0.0 W/m2 CLR
06:35 37.8 °F 25.9 °F 29.71 in South 9.8 mph 12.7 mph 62 % 0.00 in 0.0 W/m2 CLR
06:40 37.6 °F 25.7 °F 29.71 in WSW 6.4 mph 10.4 mph 62 % 0.00 in 0.0 W/m2 CLR
06:45 37.5 °F 25.7 °F 29.72 in WSW 10.5 mph 19.6 mph 62 % 0.00 in 0.0 W/m2 CLR
06:50 37.5 °F 26.0 °F 29.72 in SW 12.5 mph 17.3 mph 63 % 0.00 in 0.0 W/m2 CLR
06:55 37.5 °F 26.0 °F 29.72 in WSW 6.5 mph 10.4 mph 63 % 0.00 in 0.0 W/m2 CLR
07:00 37.4 °F 25.9 °F 29.72 in SW 8.7 mph 13.8 mph 63 % 0.00 in 0.0 W/m2 OVC
07:05 37.4 °F 25.9 °F 29.72 in West 7.8 mph 15.0 mph 63 % 0.00 in 0.0 W/m2 OVC
07:10 37.3 °F 26.2 °F 29.72 in WSW 11.2 mph 15.0 mph 64 % 0.00 in 0.0 W/m2 OVC
07:15 37.3 °F 26.2 °F 29.72 in West 12.4 mph 18.4 mph 64 % 0.00 in 0.0 W/m2 OVC
07:20 37.2 °F 26.1 °F 29.73 in West 10.1 mph 15.0 mph 64 % 0.00 in 0.0 W/m2 OVC
07:25 37.0 °F 26.3 °F 29.73 in West 10.9 mph 16.1 mph 65 % 0.00 in 0.0 W/m2 OVC
07:30 36.8 °F 26.5 °F 29.73 in WSW 9.1 mph 12.7 mph 66 % 0.00 in 0.0 W/m2 OVC
07:35 36.7 °F 26.4 °F 29.73 in WSW 8.9 mph 15.0 mph 66 % 0.00 in 7.0 W/m2 CLR
07:40 36.7 °F 26.4 °F 29.73 in WSW 9.8 mph 15.0 mph 66 % 0.00 in 9.0 W/m2 CLR
07:45 36.7 °F 26.4 °F 29.73 in West 8.2 mph 17.3 mph 66 % 0.00 in 7.0 W/m2 BKN
07:50 36.7 °F 26.4 °F 29.74 in SW 10.3 mph 12.7 mph 66 % 0.00 in 7.0 W/m2 OVC
07:56 36.7 °F 26.4 °F 29.74 in West 5.4 mph 11.5 mph 66 % 0.00 in 12.0 W/m2 OVC
08:00 36.6 °F 26.7 °F 29.74 in WSW 7.0 mph 11.5 mph 67 % 0.00 in 21.0 W/m2 BKN
08:05 36.5 °F 26.6 °F 29.74 in SW 7.6 mph 15.0 mph 67 % 0.00 in 21.0 W/m2 BKN
08:11 36.5 °F 26.6 °F 29.74 in SW 5.2 mph 10.4 mph 67 % 0.00 in 19.0 W/m2 BKN
08:16 36.5 °F 26.6 °F 29.74 in West 7.5 mph 12.7 mph 67 % 0.00 in 28.0 W/m2 BKN
08:21 36.5 °F 26.6 °F 29.74 in SW 7.7 mph 12.7 mph 67 % 0.00 in 32.0 W/m2 BKN
08:26 36.5 °F 26.6 °F 29.74 in WSW 8.1 mph 12.7 mph 67 % 0.00 in 33.0 W/m2 BKN
08:36 36.4 °F 26.5 °F 29.74 in SSW 8.3 mph 15.0 mph 67 % 0.00 in 40.0 W/m2 BKN
08:41 36.5 °F 26.2 °F 29.74 in WSW 5.9 mph 13.8 mph 66 % 0.00 in 39.0 W/m2 BKN
08:46 36.6 °F 26.3 °F 29.75 in WSW 10.5 mph 13.8 mph 66 % 0.00 in 37.0 W/m2 OVC
08:51 36.6 °F 25.9 °F 29.75 in West 8.2 mph 19.6 mph 65 % 0.00 in 46.0 W/m2 BKN
08:56 36.6 °F 25.9 °F 29.75 in WSW 9.5 mph 15.0 mph 65 % 0.00 in 63.0 W/m2 BKN
09:01 36.6 °F 25.9 °F 29.75 in West 10.1 mph 18.4 mph 65 % 0.00 in 65.0 W/m2 BKN
09:06 36.6 °F 25.9 °F 29.75 in SW 7.9 mph 12.7 mph 65 % 0.00 in 62.0 W/m2 BKN
09:11 36.5 °F 26.2 °F 29.75 in WSW 7.9 mph 18.4 mph 66 % 0.00 in 56.0 W/m2 BKN
09:16 36.4 °F 26.1 °F 29.75 in West 11.8 mph 16.1 mph 66 % 0.00 in 60.0 W/m2 BKN
09:21 36.5 °F 26.2 °F 29.75 in WSW 6.0 mph 11.5 mph 66 % 0.00 in 72.0 W/m2 BKN
09:26 36.6 °F 26.3 °F 29.75 in WSW 9.4 mph 15.0 mph 66 % 0.00 in 81.0 W/m2 BKN
09:31 36.6 °F 26.3 °F 29.75 in West 8.2 mph 15.0 mph 66 % 0.00 in 141.0 W/m2 BKN
09:36 36.8 °F 26.5 °F 29.75 in WSW 9.9 mph 15.0 mph 66 % 0.00 in 185.0 W/m2 FEW
09:41 37.0 °F 26.3 °F 29.75 in WSW 9.1 mph 16.0 mph 65 % 0.00 in 190.0 W/m2 FEW
09:46 36.9 °F 26.6 °F 29.75 in WSW 10.1 mph 13.8 mph 66 % 0.00 in 176.0 W/m2 SCT
09:51 36.9 °F 26.6 °F 29.75 in WSW 9.6 mph 19.6 mph 66 % 0.00 in 162.0 W/m2 SCT
09:56 36.8 °F 26.9 °F 29.75 in West 11.2 mph 14.0 mph 67 % 0.00 in 155.0 W/m2 SCT
10:01 36.6 °F 26.7 °F 29.75 in West 10.3 mph 18.4 mph 67 % 0.00 in 176.0 W/m2 SCT
10:06 36.6 °F 27.0 °F 29.75 in WNW 10.6 mph 18.0 mph 68 % 0.00 in 230.0 W/m2 FEW
10:11 36.8 °F 27.2 °F 29.75 in West 11.5 mph 15.0 mph 68 % 0.00 in 216.0 W/m2 SCT
10:16 37.0 °F 27.4 °F 29.75 in SW 6.7 mph 11.5 mph 68 % 0.00 in 306.0 W/m2 FEW
10:21 37.4 °F 27.4 °F 29.75 in West 8.5 mph 15.0 mph 67 % 0.00 in 438.0 W/m2 CLR
10:26 37.8 °F 27.5 °F 29.75 in West 9.2 mph 14.0 mph 66 % 0.00 in 246.0 W/m2 FEW
10:31 37.9 °F 27.2 °F 29.74 in WSW 9.5 mph 16.0 mph 65 % 0.00 in 211.0 W/m2 SCT
10:37 37.9 °F 26.8 °F 29.74 in WSW 12.0 mph 15.0 mph 64 % 0.00 in 186.0 W/m2 SCT
10:42 37.9 °F 26.4 °F 29.74 in WSW 12.5 mph 23.0 mph 63 % 0.00 in 195.0 W/m2 SCT
10:47 37.9 °F 26.0 °F 29.73 in WSW 13.1 mph 17.3 mph 62 % 0.00 in 204.0 W/m2 SCT
10:52 38.0 °F 26.1 °F 29.73 in West 10.6 mph 19.6 mph 62 % 0.00 in 227.0 W/m2 SCT
10:57 38.2 °F 26.3 °F 29.73 in WSW 11.8 mph 13.8 mph 62 % 0.00 in 264.0 W/m2 SCT
11:02 38.3 °F 25.6 °F 29.73 in West 9.1 mph 13.8 mph 60 % 0.00 in 274.0 W/m2 SCT
11:07 38.5 °F 26.2 °F 29.72 in WSW 11.5 mph 18.4 mph 61 % 0.00 in 288.0 W/m2 FEW
11:12 38.6 °F 25.9 °F 29.72 in West 12.5 mph 18.4 mph 60 % 0.00 in 406.0 W/m2 CLR
11:17 39.1 °F 26.4 °F 29.72 in West 11.7 mph 16.1 mph 60 % 0.00 in 390.0 W/m2 CLR
11:22 39.4 °F 26.2 °F 29.72 in West 9.9 mph 15.0 mph 59 % 0.00 in 290.0 W/m2 FEW
11:27 39.3 °F 25.7 °F 29.72 in West 8.9 mph 11.5 mph 58 % 0.00 in 250.0 W/m2 SCT
11:32 39.4 °F 26.2 °F 29.72 in WSW 10.4 mph 13.8 mph 59 % 0.00 in 301.0 W/m2 FEW
11:37 39.6 °F 25.6 °F 29.71 in WSW 8.9 mph 16.1 mph 57 % 0.00 in 355.0 W/m2 FEW
11:42 39.7 °F 25.7 °F 29.71 in WSW 11.5 mph 18.4 mph 57 % 0.00 in 241.0 W/m2 SCT
11:47 39.4 °F 25.0 °F 29.71 in WSW 14.9 mph 25.3 mph 56 % 0.00 in 162.0 W/m2 BKN
11:52 39.1 °F 24.7 °F 29.70 in West 14.4 mph 20.7 mph 56 % 0.00 in 128.0 W/m2 BKN
11:57 38.9 °F 24.5 °F 29.70 in West 11.4 mph 19.0 mph 56 % 0.00 in 79.0 W/m2 OVC
12:02 38.8 °F 24.9 °F 29.70 in West 10.5 mph 15.0 mph 57 % 0.00 in 104.0 W/m2 OVC
12:07 38.8 °F 25.3 °F 29.70 in WNW 11.8 mph 19.6 mph 58 % 0.00 in 197.0 W/m2 BKN
12:12 38.8 °F 25.3 °F 29.69 in West 15.1 mph 19.6 mph 58 % 0.00 in 192.0 W/m2 BKN
12:17 38.8 °F 25.7 °F 29.69 in West 12.0 mph 17.3 mph 59 % 0.00 in 241.0 W/m2 BKN
12:22 38.9 °F 25.4 °F 29.69 in West 13.7 mph 18.4 mph 58 % 0.00 in 301.0 W/m2 SCT
12:27 39.1 °F 25.6 °F 29.69 in WSW 13.2 mph 18.4 mph 58 % 0.00 in 190.0 W/m2 BKN
12:32 38.9 °F 25.4 °F 29.69 in West 14.6 mph 20.7 mph 58 % 0.00 in 241.0 W/m2 SCT
12:37 38.8 °F 25.7 °F 29.68 in WNW 15.3 mph 18.4 mph 59 % 0.00 in 236.0 W/m2 SCT
12:42 38.9 °F 25.8 °F 29.68 in West 8.9 mph 13.8 mph 59 % 0.00 in 193.0 W/m2 BKN
12:47 38.9 °F 25.8 °F 29.68 in WNW 15.8 mph 18.4 mph 59 % 0.00 in 142.0 W/m2 BKN
12:52 38.7 °F 25.6 °F 29.68 in West 9.6 mph 17.3 mph 59 % 0.00 in 155.0 W/m2 BKN
12:57 38.5 °F 25.4 °F 29.68 in West 15.7 mph 24.2 mph 59 % 0.00 in 135.0 W/m2 BKN
13:02 38.4 °F 25.3 °F 29.67 in WNW 13.3 mph 19.6 mph 59 % 0.00 in 76.0 W/m2 OVC
13:12 38.4 °F 25.7 °F 29.67 in SW 11.5 mph 18.4 mph 60 % 0.00 in 241.0 W/m2 SCT
13:17 38.5 °F 25.8 °F 29.67 in West 15.7 mph 20.7 mph 60 % 0.00 in 186.0 W/m2 BKN
13:22 38.4 °F 25.3 °F 29.67 in SW 12.6 mph 18.4 mph 59 % 0.00 in 151.0 W/m2 BKN
13:27 38.3 °F 25.6 °F 29.67 in WSW 13.1 mph 19.6 mph 60 % 0.00 in 176.0 W/m2 BKN
13:32 38.3 °F 25.6 °F 29.66 in West 12.5 mph 17.3 mph 60 % 0.00 in 141.0 W/m2 BKN
13:37 38.3 °F 25.6 °F 29.66 in WSW 9.0 mph 18.4 mph 60 % 0.00 in 162.0 W/m2 BKN
13:42 38.3 °F 25.6 °F 29.66 in WNW 10.9 mph 18.4 mph 60 % 0.00 in 213.0 W/m2 BKN
13:47 38.6 °F 26.3 °F 29.66 in West 10.7 mph 19.6 mph 61 % 0.00 in 230.0 W/m2 SCT
13:52 38.7 °F 25.6 °F 29.66 in West 14.0 mph 18.4 mph 59 % 0.00 in 178.0 W/m2 BKN
13:57 38.6 °F 25.5 °F 29.66 in WNW 13.6 mph 19.6 mph 59 % 0.00 in 209.0 W/m2 SCT
14:02 38.6 °F 25.5 °F 29.66 in NW 9.0 mph 17.3 mph 59 % 0.00 in 209.0 W/m2 SCT
14:07 38.6 °F 25.5 °F 29.66 in WNW 13.5 mph 19.6 mph 59 % 0.00 in 199.0 W/m2 SCT
14:18 38.3 °F 25.6 °F 29.65 in West 10.9 mph 18.4 mph 60 % 0.00 in 149.0 W/m2 BKN
14:23 38.4 °F 25.7 °F 29.65 in WNW 9.1 mph 13.0 mph 60 % 0.00 in 183.0 W/m2 SCT
14:28 38.5 °F 25.8 °F 29.65 in West 6.4 mph 11.5 mph 60 % 0.00 in 197.0 W/m2 SCT
14:33 38.8 °F 26.1 °F 29.65 in WSW 8.3 mph 15.0 mph 60 % 0.00 in 183.0 W/m2 SCT
14:38 38.8 °F 25.7 °F 29.65 in WSW 7.1 mph 12.7 mph 59 % 0.00 in 169.0 W/m2 SCT
14:43 38.7 °F 25.2 °F 29.65 in West 8.4 mph 11.5 mph 58 % 0.00 in 155.0 W/m2 SCT
14:48 38.6 °F 25.1 °F 29.65 in WSW 7.6 mph 19.0 mph 58 % 0.00 in 155.0 W/m2 SCT
14:53 38.6 °F 24.7 °F 29.65 in SW 9.0 mph 16.1 mph 57 % 0.00 in 141.0 W/m2 SCT
14:58 38.7 °F 24.8 °F 29.65 in WSW 5.5 mph 10.4 mph 57 % 0.00 in 132.0 W/m2 SCT
15:03 38.7 °F 24.8 °F 29.66 in West 8.7 mph 13.8 mph 57 % 0.00 in 107.0 W/m2 BKN
15:08 38.7 °F 24.8 °F 29.66 in SW 9.5 mph 11.5 mph 57 % 0.00 in 95.0 W/m2 BKN
15:13 38.8 °F 24.9 °F 29.66 in West 9.1 mph 18.4 mph 57 % 0.00 in 74.0 W/m2 BKN
15:23 38.4 °F 26.1 °F 29.66 in WSW 7.4 mph 12.0 mph 61 % 0.00 in 77.0 W/m2 BKN
15:28 37.7 °F 27.0 °F 29.66 in West 8.5 mph 11.5 mph 65 % 0.00 in 70.0 W/m2 BKN
15:33 37.2 °F 27.2 °F 29.67 in West 10.3 mph 17.3 mph 67 % 0.00 in 62.0 W/m2 BKN
15:38 36.9 °F 27.3 °F 29.67 in SW 9.4 mph 12.7 mph 68 % 0.00 in 30.0 W/m2 OVC
15:43 36.7 °F 27.5 °F 29.67 in WSW 12.0 mph 18.4 mph 69 % 0.00 in 28.0 W/m2 OVC
15:48 36.5 °F 27.6 °F 29.67 in West 10.1 mph 18.4 mph 70 % 0.00 in 28.0 W/m2 OVC
15:53 36.5 °F 27.6 °F 29.67 in WSW 6.6 mph 13.8 mph 70 % 0.00 in 35.0 W/m2 OVC
16:01 36.3 °F 27.8 °F 29.67 in WSW 8.1 mph 15.0 mph 71 % 0.00 in 67.0 W/m2 BKN
16:14 36.3 °F 27.8 °F 29.67 in WSW 9.9 mph 11.5 mph 71 % 0.00 in 46.0 W/m2 BKN
16:19 36.3 °F 27.8 °F 29.67 in West 12.2 mph 16.1 mph 71 % 0.00 in 32.0 W/m2 BKN
16:24 36.2 °F 27.7 °F 29.67 in WSW 10.7 mph 13.0 mph 71 % 0.00 in 25.0 W/m2 BKN
16:29 36.2 °F 27.7 °F 29.67 in West 5.1 mph 9.2 mph 71 % 0.00 in 21.0 W/m2 BKN
16:34 36.2 °F 27.7 °F 29.68 in West 6.5 mph 12.7 mph 71 % 0.00 in 16.0 W/m2 OVC
16:39 36.2 °F 27.4 °F 29.68 in WSW 7.3 mph 12.7 mph 70 % 0.00 in 26.0 W/m2 SCT
16:44 36.2 °F 27.4 °F 29.67 in West 11.0 mph 18.4 mph 70 % 0.00 in 32.0 W/m2 FEW
16:49 36.2 °F 27.4 °F 29.67 in SW 7.8 mph 13.8 mph 70 % 0.00 in 21.0 W/m2 SCT
16:54 36.2 °F 27.4 °F 29.68 in WSW 11.4 mph 18.4 mph 70 % 0.00 in 11.0 W/m2 BKN
16:59 36.1 °F 26.9 °F 29.68 in West 10.2 mph 15.0 mph 69 % 0.00 in 9.0 W/m2 SCT
17:04 36.1 °F 26.9 °F 29.68 in West 9.4 mph 11.5 mph 69 % 0.00 in 7.0 W/m2 FEW
17:09 36.1 °F 26.9 °F 29.68 in West 5.1 mph 11.0 mph 69 % 0.00 in 0.0 W/m2 OVC
17:18 35.9 °F 26.4 °F 29.69 in WSW 12.1 mph 17.3 mph 68 % 0.00 in 0.0 W/m2 OVC
17:23 35.7 °F 26.5 °F 29.69 in West 5.5 mph 11.5 mph 69 % 0.00 in 0.0 W/m2 OVC
17:28 35.6 °F 26.4 °F 29.69 in WSW 9.3 mph 13.8 mph 69 % 0.00 in 0.0 W/m2 OVC
17:33 35.5 °F 26.7 °F 29.69 in West 4.3 mph 9.2 mph 70 % 0.00 in 0.0 W/m2 OVC
17:38 35.4 °F 26.6 °F 29.69 in WSW 7.9 mph 11.5 mph 70 % 0.00 in 0.0 W/m2 OVC
17:47 35.3 °F 26.5 °F 29.69 in WNW 5.7 mph 8.1 mph 70 % 0.00 in 0.0 W/m2 CLR
17:53 35.3 °F 26.8 °F 29.69 in WSW 4.7 mph 11.5 mph 71 % 0.00 in 0.0 W/m2 CLR
17:55 35.3 °F 26.8 °F 29.69 in WSW 5.4 mph 8.1 mph 71 % 0.00 in 0.0 W/m2 CLR
17:58 35.2 °F 26.7 °F 29.69 in West 5.2 mph 9.2 mph 71 % 0.00 in 0.0 W/m2 CLR
17:59 35.2 °F 26.7 °F 29.69 in WNW 8.8 mph 11.0 mph 71 % 0.00 in 0.0 W/m2 CLR
18:03 35.2 °F 26.7 °F 29.69 in SW 7.7 mph 11.5 mph 71 % 0.00 in 0.0 W/m2 CLR
18:08 35.2 °F 26.7 °F 29.69 in West 3.6 mph 5.8 mph 71 % 0.00 in 0.0 W/m2 CLR
18:13 35.2 °F 27.1 °F 29.69 in West 3.5 mph 6.9 mph 72 % 0.00 in 0.0 W/m2 CLR
18:18 35.3 °F 27.2 °F 29.69 in WSW 4.7 mph 9.2 mph 72 % 0.00 in 0.0 W/m2 CLR
18:23 35.3 °F 26.8 °F 29.69 in WNW 6.0 mph 9.2 mph 71 % 0.00 in 0.0 W/m2 CLR
18:28 35.3 °F 26.8 °F 29.69 in WSW 9.4 mph 12.7 mph 71 % 0.00 in 0.0 W/m2 CLR
18:39 35.3 °F 26.8 °F 29.69 in West 4.2 mph 8.1 mph 71 % 0.00 in 0.0 W/m2 CLR
18:44 35.2 °F 26.7 °F 29.69 in SW 7.1 mph 11.5 mph 71 % 0.00 in 0.0 W/m2 CLR
18:49 35.1 °F 26.6 °F 29.69 in SW 4.4 mph 16.0 mph 71 % 0.00 in 0.0 W/m2 CLR
18:54 35.0 °F 26.5 °F 29.69 in WSW 5.9 mph 11.5 mph 71 % 0.00 in 0.0 W/m2 CLR
18:59 35.0 °F 26.5 °F 29.69 in WSW 5.2 mph 9.2 mph 71 % 0.00 in 0.0 W/m2 CLR
19:04 34.8 °F 26.4 °F 29.69 in WSW 6.5 mph 12.7 mph 71 % 0.00 in 0.0 W/m2 CLR
19:09 34.7 °F 25.9 °F 29.69 in SW 7.4 mph 13.0 mph 70 % 0.00 in 0.0 W/m2 CLR
19:14 34.5 °F 25.7 °F 29.69 in SW 7.4 mph 12.7 mph 70 % 0.00 in 0.0 W/m2 CLR
20:01 33.6 °F 24.5 °F 29.70 in West 6.6 mph 11.5 mph 69 % 0.00 in 0.0 W/m2 CLR
20:06 33.5 °F 24.4 °F 29.70 in West 4.6 mph 8.1 mph 69 % 0.00 in 0.0 W/m2 CLR
20:11 33.5 °F 24.4 °F 29.70 in West 6.8 mph 10.4 mph 69 % 0.00 in 0.0 W/m2 CLR
20:16 33.4 °F 24.0 °F 29.70 in WSW 5.3 mph 10.4 mph 68 % 0.00 in 0.0 W/m2 CLR
20:21 33.4 °F 24.0 °F 29.70 in West 5.6 mph 8.1 mph 68 % 0.00 in 0.0 W/m2 CLR
20:26 33.3 °F 23.5 °F 29.70 in West 5.1 mph 11.0 mph 67 % 0.00 in 0.0 W/m2 CLR
20:31 33.2 °F 23.4 °F 29.70 in WSW 7.3 mph 11.5 mph 67 % 0.00 in 0.0 W/m2 CLR
20:36 33.2 °F 23.1 °F 29.70 in WSW 3.9 mph 9.2 mph 66 % 0.00 in 0.0 W/m2 CLR
20:41 33.2 °F 23.1 °F 29.71 in WSW 9.1 mph 11.5 mph 66 % 0.00 in 0.0 W/m2 CLR
20:46 33.2 °F 23.1 °F 29.71 in WSW 5.6 mph 8.1 mph 66 % 0.00 in 0.0 W/m2 CLR
20:51 33.0 °F 22.9 °F 29.71 in WSW 4.0 mph 10.0 mph 66 % 0.00 in 0.0 W/m2 CLR
20:56 33.0 °F 22.9 °F 29.71 in West 11.5 mph 17.3 mph 66 % 0.00 in 0.0 W/m2 CLR
21:01 33.0 °F 22.9 °F 29.71 in WSW 6.9 mph 11.5 mph 66 % 0.00 in 0.0 W/m2 CLR
21:06 33.0 °F 22.9 °F 29.71 in WSW 4.6 mph 9.2 mph 66 % 0.00 in 0.0 W/m2 CLR
21:16 32.7 °F 22.9 °F 29.71 in West 5.2 mph 10.4 mph 67 % 0.00 in 0.0 W/m2 CLR
21:21 32.4 °F 23.0 °F 29.71 in WSW 7.7 mph 10.4 mph 68 % 0.00 in 0.0 W/m2 CLR
21:26 32.3 °F 22.9 °F 29.71 in West 6.5 mph 9.2 mph 68 % 0.00 in 0.0 W/m2 CLR
21:31 32.2 °F 23.2 °F 29.72 in West 6.8 mph 11.5 mph 69 % 0.00 in 0.0 W/m2 CLR
21:36 32.3 °F 23.3 °F 29.72 in WSW 4.6 mph 8.1 mph 69 % 0.00 in 0.0 W/m2 CLR
21:41 32.3 °F 22.9 °F 29.72 in WSW 4.8 mph 9.2 mph 68 % 0.00 in 0.0 W/m2 CLR
21:46 32.3 °F 23.3 °F 29.72 in WSW 6.9 mph 11.5 mph 69 % 0.00 in 0.0 W/m2 CLR
21:51 32.3 °F 22.9 °F 29.72 in WSW 6.0 mph 8.1 mph 68 % 0.00 in 0.0 W/m2 CLR
21:56 32.3 °F 22.9 °F 29.72 in WSW 5.3 mph 12.7 mph 68 % 0.00 in 0.0 W/m2 CLR
22:01 32.2 °F 22.8 °F 29.72 in WSW 4.8 mph 9.2 mph 68 % 0.00 in 0.0 W/m2 CLR
22:06 32.1 °F 22.7 °F 29.72 in WSW 4.4 mph 8.1 mph 68 % 0.00 in 0.0 W/m2 CLR
22:14 31.8 °F 22.8 °F 29.72 in West 3.4 mph 8.1 mph 69 % 0.00 in 0.0 W/m2 CLR
22:19 31.5 °F 22.5 °F 29.72 in WSW 3.5 mph 4.0 mph 69 % 0.00 in 0.0 W/m2 CLR
22:24 31.4 °F 22.7 °F 29.72 in WSW 3.7 mph 8.1 mph 70 % 0.00 in 0.0 W/m2 CLR
22:26 31.4 °F 22.7 °F 29.72 in WSW 6.3 mph 6.3 mph 70 % 0.00 in 0.0 W/m2 CLR
22:28 31.4 °F 22.7 °F 29.72 in SW 4.7 mph 5.0 mph 70 % 0.00 in 0.0 W/m2 CLR
22:33 31.4 °F 22.7 °F 29.72 in WSW 3.2 mph 6.9 mph 70 % 0.00 in 0.0 W/m2 CLR
22:38 31.4 °F 23.1 °F 29.72 in WSW 3.9 mph 9.2 mph 71 % 0.00 in 0.0 W/m2 CLR
22:43 31.4 °F 23.1 °F 29.72 in WSW 2.0 mph 9.2 mph 71 % 0.00 in 0.0 W/m2 CLR
22:48 31.3 °F 22.6 °F 29.72 in West 3.2 mph 8.1 mph 70 % 0.00 in 0.0 W/m2 CLR
22:53 31.3 °F 22.6 °F 29.72 in SW 3.5 mph 6.9 mph 70 % 0.00 in 0.0 W/m2 CLR
22:58 31.2 °F 22.5 °F 29.72 in WSW 4.4 mph 8.1 mph 70 % 0.00 in 0.0 W/m2 CLR
23:03 31.2 °F 22.5 °F 29.72 in WSW 5.4 mph 6.9 mph 70 % 0.00 in 0.0 W/m2 CLR
23:13 31.4 °F 22.4 °F 29.72 in WSW 7.2 mph 11.5 mph 69 % 0.00 in 0.0 W/m2 CLR
23:23 31.6 °F 21.9 °F 29.72 in WSW 4.2 mph 6.9 mph 67 % 0.00 in 0.0 W/m2 CLR
23:28 31.7 °F 22.0 °F 29.72 in West 6.1 mph 11.5 mph 67 % 0.00 in 0.0 W/m2 CLR
23:33 31.9 °F 21.8 °F 29.72 in WNW 4.5 mph 6.9 mph 66 % 0.00 in 0.0 W/m2 CLR
23:38 32.0 °F 21.6 °F 29.72 in WSW 6.2 mph 9.2 mph 65 % 0.00 in 0.0 W/m2 CLR
23:43 32.1 °F 21.3 °F 29.72 in SW 6.9 mph 11.5 mph 64 % 0.00 in 0.0 W/m2 CLR
23:48 32.3 °F 21.5 °F 29.72 in West 5.6 mph 9.2 mph 64 % 0.00 in 0.0 W/m2 CLR
23:53 32.4 °F 21.6 °F 29.72 in WSW 5.8 mph 11.5 mph 64 % 0.00 in 0.0 W/m2 CLR
23:58 32.5 °F 21.3 °F 29.72 in West 5.6 mph 10.4 mph 63 % 0.00 in 0.0 W/m2 CLR
Air Products Campus Weather
Compliments of Weather Underground - 3.25 mb